Terminal Aerodrome Forecast
Issued by NWS

Home | Current Version | Previous Version | Graphics & Text | Print | Product List | Glossary On
Versions: 1 2 3 4 5 6 7 8 9 10 11 12 13 14 15 16 17 18 19 20
086
FTUS43 KABR 270532
TAFATY
TAF
KATY 270532Z 2706/2806 VRB03KT P6SM BKN200
     FM271200 26004KT P6SM VCSH OVC090
     FM271500 26005KT P6SM OVC090
     FM272300 25008KT P6SM SCT200=

USA.gov is the U.S. government's official web portal to all federal, state and local government web resources and services.